sensor_id;sensor_type;location;lat;lon;timestamp;temperature;humidity
47540;DHT22;33280;52.152;21.052;2023-06-14T00:01:59;13.10;99.90
47540;DHT22;33280;52.152;21.052;2023-06-14T00:04:26;13.10;99.90
47540;DHT22;33280;52.152;21.052;2023-06-14T00:06:53;13.20;99.90
47540;DHT22;33280;52.152;21.052;2023-06-14T00:09:23;13.10;99.90
47540;DHT22;33280;52.152;21.052;2023-06-14T00:11:50;13.10;99.90
47540;DHT22;33280;52.152;21.052;2023-06-14T00:14:17;13.10;99.90
47540;DHT22;33280;52.152;21.052;2023-06-14T00:16:44;13.10;99.90
47540;DHT22;33280;52.152;21.052;2023-06-14T00:19:11;13.10;99.90
47540;DHT22;33280;52.152;21.052;2023-06-14T00:21:38;12.90;99.90
47540;DHT22;33280;52.152;21.052;2023-06-14T00:24:05;12.90;99.90
47540;DHT22;33280;52.152;21.052;2023-06-14T00:26:32;13.00;99.90
47540;DHT22;33280;52.152;21.052;2023-06-14T00:28:59;13.00;99.90
47540;DHT22;33280;52.152;21.052;2023-06-14T00:31:27;13.00;99.90
47540;DHT22;33280;52.152;21.052;2023-06-14T00:33:54;13.00;99.90
47540;DHT22;33280;52.152;21.052;2023-06-14T00:36:21;12.90;99.90
47540;DHT22;33280;52.152;21.052;2023-06-14T00:38:48;12.90;99.90
47540;DHT22;33280;52.152;21.052;2023-06-14T00:41:15;12.90;99.90
47540;DHT22;33280;52.152;21.052;2023-06-14T00:43:42;12.90;99.90
47540;DHT22;33280;52.152;21.052;2023-06-14T00:46:09;12.80;99.90
47540;DHT22;33280;52.152;21.052;2023-06-14T00:48:37;12.80;99.90
47540;DHT22;33280;52.152;21.052;2023-06-14T00:51:06;12.90;99.90
47540;DHT22;33280;52.152;21.052;2023-06-14T00:53:33;12.90;99.90
47540;DHT22;33280;52.152;21.052;2023-06-14T00:56:06;12.90;99.90
47540;DHT22;33280;52.152;21.052;2023-06-14T00:58:33;12.90;99.90
47540;DHT22;33280;52.152;21.052;2023-06-14T01:01:00;12.90;99.90
47540;DHT22;33280;52.152;21.052;2023-06-14T01:03:29;12.90;99.90
47540;DHT22;33280;52.152;21.052;2023-06-14T01:06:06;12.90;99.90
47540;DHT22;33280;52.152;21.052;2023-06-14T01:11:18;13.00;99.90
47540;DHT22;33280;52.152;21.052;2023-06-14T01:13:47;13.00;99.90
47540;DHT22;33280;52.152;21.052;2023-06-14T01:16:15;13.00;99.90
47540;DHT22;33280;52.152;21.052;2023-06-14T01:18:44;13.00;99.90
47540;DHT22;33280;52.152;21.052;2023-06-14T01:21:25;13.00;99.90
47540;DHT22;33280;52.152;21.052;2023-06-14T01:23:53;13.00;99.90
47540;DHT22;33280;52.152;21.052;2023-06-14T01:26:24;13.00;99.90
47540;DHT22;33280;52.152;21.052;2023-06-14T01:28:56;13.00;99.90
47540;DHT22;33280;52.152;21.052;2023-06-14T01:31:26;13.00;99.90
47540;DHT22;33280;52.152;21.052;2023-06-14T01:33:55;13.10;99.90
47540;DHT22;33280;52.152;21.052;2023-06-14T01:36:22;13.20;99.90
47540;DHT22;33280;52.152;21.052;2023-06-14T01:38:53;13.10;99.90
47540;DHT22;33280;52.152;21.052;2023-06-14T01:41:23;13.10;99.90
47540;DHT22;33280;52.152;21.052;2023-06-14T01:43:52;13.10;99.90
47540;DHT22;33280;52.152;21.052;2023-06-14T01:46:20;13.10;99.90
47540;DHT22;33280;52.152;21.052;2023-06-14T01:48:49;13.00;99.90
47540;DHT22;33280;52.152;21.052;2023-06-14T01:51:16;13.10;99.90
47540;DHT22;33280;52.152;21.052;2023-06-14T01:53:43;13.00;99.90
47540;DHT22;33280;52.152;21.052;2023-06-14T01:56:10;13.10;99.90
47540;DHT22;33280;52.152;21.052;2023-06-14T01:58:37;13.10;99.90
47540;DHT22;33280;52.152;21.052;2023-06-14T02:01:06;13.10;99.90
47540;DHT22;33280;52.152;21.052;2023-06-14T02:03:34;13.20;99.90
47540;DHT22;33280;52.152;21.052;2023-06-14T02:06:01;13.10;99.90
47540;DHT22;33280;52.152;21.052;2023-06-14T02:08:28;13.10;99.90
47540;DHT22;33280;52.152;21.052;2023-06-14T02:10:56;13.10;99.90
47540;DHT22;33280;52.152;21.052;2023-06-14T02:13:23;13.10;99.90
47540;DHT22;33280;52.152;21.052;2023-06-14T02:15:50;13.10;99.90
47540;DHT22;33280;52.152;21.052;2023-06-14T02:18:21;13.10;99.90
47540;DHT22;33280;52.152;21.052;2023-06-14T02:20:49;13.10;99.90
47540;DHT22;33280;52.152;21.052;2023-06-14T02:23:16;13.10;99.90
47540;DHT22;33280;52.152;21.052;2023-06-14T02:25:43;13.00;99.90
47540;DHT22;33280;52.152;21.052;2023-06-14T02:28:12;13.10;99.90
47540;DHT22;33280;52.152;21.052;2023-06-14T02:30:39;13.00;99.90
47540;DHT22;33280;52.152;21.052;2023-06-14T02:33:08;13.00;99.90
47540;DHT22;33280;52.152;21.052;2023-06-14T02:35:39;13.10;99.90
47540;DHT22;33280;52.152;21.052;2023-06-14T02:38:10;13.10;99.90
47540;DHT22;33280;52.152;21.052;2023-06-14T02:40:40;13.10;99.90
47540;DHT22;33280;52.152;21.052;2023-06-14T02:43:10;13.10;99.90
47540;DHT22;33280;52.152;21.052;2023-06-14T02:45:37;13.10;99.90
47540;DHT22;33280;52.152;21.052;2023-06-14T02:48:04;13.10;99.90
47540;DHT22;33280;52.152;21.052;2023-06-14T02:50:32;13.20;99.90
47540;DHT22;33280;52.152;21.052;2023-06-14T02:52:59;13.10;99.90
47540;DHT22;33280;52.152;21.052;2023-06-14T02:55:26;13.10;99.90
47540;DHT22;33280;52.152;21.052;2023-06-14T02:57:53;13.10;99.90
47540;DHT22;33280;52.152;21.052;2023-06-14T06:10:19;14.80;99.90
47540;DHT22;33280;52.152;21.052;2023-06-14T06:12:46;15.00;99.90
47540;DHT22;33280;52.152;21.052;2023-06-14T06:15:14;15.10;99.90
47540;DHT22;33280;52.152;21.052;2023-06-14T06:17:41;15.20;99.90
47540;DHT22;33280;52.152;21.052;2023-06-14T06:20:23;15.40;99.90
47540;DHT22;33280;52.152;21.052;2023-06-14T06:22:56;15.50;99.90
47540;DHT22;33280;52.152;21.052;2023-06-14T06:25:23;15.60;99.90
47540;DHT22;33280;52.152;21.052;2023-06-14T06:27:53;15.60;99.90
47540;DHT22;33280;52.152;21.052;2023-06-14T06:30:20;15.70;99.90
47540;DHT22;33280;52.152;21.052;2023-06-14T06:32:47;15.80;99.90
47540;DHT22;33280;52.152;21.052;2023-06-14T06:35:14;15.80;99.90
47540;DHT22;33280;52.152;21.052;2023-06-14T06:37:42;15.90;99.90
47540;DHT22;33280;52.152;21.052;2023-06-14T06:40:09;16.00;99.90
47540;DHT22;33280;52.152;21.052;2023-06-14T06:42:37;16.10;99.90
47540;DHT22;33280;52.152;21.052;2023-06-14T06:45:04;16.10;99.90
47540;DHT22;33280;52.152;21.052;2023-06-14T06:47:32;16.20;99.90
47540;DHT22;33280;52.152;21.052;2023-06-14T06:49:58;16.30;99.90
47540;DHT22;33280;52.152;21.052;2023-06-14T06:52:25;16.30;99.90
47540;DHT22;33280;52.152;21.052;2023-06-14T06:54:52;16.40;99.90
47540;DHT22;33280;52.152;21.052;2023-06-14T06:57:22;16.60;99.90
47540;DHT22;33280;52.152;21.052;2023-06-14T06:59:52;16.80;99.90
47540;DHT22;33280;52.152;21.052;2023-06-14T07:02:19;16.90;99.90
47540;DHT22;33280;52.152;21.052;2023-06-14T07:04:46;17.00;99.90
47540;DHT22;33280;52.152;21.052;2023-06-14T07:07:13;17.10;99.90
47540;DHT22;33280;52.152;21.052;2023-06-14T07:09:40;17.00;99.90
47540;DHT22;33280;52.152;21.052;2023-06-14T07:12:09;17.00;99.90
47540;DHT22;33280;52.152;21.052;2023-06-14T07:14:37;17.10;99.90
47540;DHT22;33280;52.152;21.052;2023-06-14T07:17:04;17.30;99.90
47540;DHT22;33280;52.152;21.052;2023-06-14T07:19:31;17.30;99.90
47540;DHT22;33280;52.152;21.052;2023-06-14T07:21:58;17.30;99.90
47540;DHT22;33280;52.152;21.052;2023-06-14T07:24:25;17.40;99.90
47540;DHT22;33280;52.152;21.052;2023-06-14T07:26:53;17.50;99.90
47540;DHT22;33280;52.152;21.052;2023-06-14T07:29:20;17.40;99.90
47540;DHT22;33280;52.152;21.052;2023-06-14T07:31:48;17.50;99.90
47540;DHT22;33280;52.152;21.052;2023-06-14T07:34:15;17.40;99.90
47540;DHT22;33280;52.152;21.052;2023-06-14T07:36:42;17.40;99.90
47540;DHT22;33280;52.152;21.052;2023-06-14T07:39:11;17.40;99.90
47540;DHT22;33280;52.152;21.052;2023-06-14T07:41:38;17.40;99.90
47540;DHT22;33280;52.152;21.052;2023-06-14T07:44:05;17.60;99.90
47540;DHT22;33280;52.152;21.052;2023-06-14T07:46:32;17.60;99.90
47540;DHT22;33280;52.152;21.052;2023-06-14T07:48:59;17.70;99.90
47540;DHT22;33280;52.152;21.052;2023-06-14T07:51:26;17.60;99.90
47540;DHT22;33280;52.152;21.052;2023-06-14T07:53:52;17.60;99.90
47540;DHT22;33280;52.152;21.052;2023-06-14T07:56:20;17.70;99.90
47540;DHT22;33280;52.152;21.052;2023-06-14T07:58:47;17.80;99.90
47540;DHT22;33280;52.152;21.052;2023-06-14T08:01:14;17.80;99.90
47540;DHT22;33280;52.152;21.052;2023-06-14T08:03:41;17.80;99.90
47540;DHT22;33280;52.152;21.052;2023-06-14T08:06:09;17.90;99.90
47540;DHT22;33280;52.152;21.052;2023-06-14T08:08:36;17.90;99.90
47540;DHT22;33280;52.152;21.052;2023-06-14T08:11:03;18.00;99.90
47540;DHT22;33280;52.152;21.052;2023-06-14T08:13:30;18.00;99.90
47540;DHT22;33280;52.152;21.052;2023-06-14T08:15:57;18.20;99.90
47540;DHT22;33280;52.152;21.052;2023-06-14T08:18:25;18.20;99.90
47540;DHT22;33280;52.152;21.052;2023-06-14T08:20:51;18.30;99.90
47540;DHT22;33280;52.152;21.052;2023-06-14T08:23:19;18.30;99.90
47540;DHT22;33280;52.152;21.052;2023-06-14T08:25:47;18.30;99.90
47540;DHT22;33280;52.152;21.052;2023-06-14T08:28:14;18.60;99.90
47540;DHT22;33280;52.152;21.052;2023-06-14T08:30:42;18.80;99.90
47540;DHT22;33280;52.152;21.052;2023-06-14T08:33:09;18.90;99.90
47540;DHT22;33280;52.152;21.052;2023-06-14T08:35:43;19.20;99.90
47540;DHT22;33280;52.152;21.052;2023-06-14T08:38:11;19.60;99.90
47540;DHT22;33280;52.152;21.052;2023-06-14T08:40:39;19.90;99.90
47540;DHT22;33280;52.152;21.052;2023-06-14T08:43:08;20.10;99.90
47540;DHT22;33280;52.152;21.052;2023-06-14T08:45:35;20.20;99.90
47540;DHT22;33280;52.152;21.052;2023-06-14T08:48:02;20.40;99.90
47540;DHT22;33280;52.152;21.052;2023-06-14T08:50:32;20.40;99.90
47540;DHT22;33280;52.152;21.052;2023-06-14T08:53:01;20.40;99.90
47540;DHT22;33280;52.152;21.052;2023-06-14T08:55:31;20.70;99.90
47540;DHT22;33280;52.152;21.052;2023-06-14T08:58:03;21.10;99.90
47540;DHT22;33280;52.152;21.052;2023-06-14T09:00:32;21.40;99.90
47540;DHT22;33280;52.152;21.052;2023-06-14T09:03:00;21.50;99.90
47540;DHT22;33280;52.152;21.052;2023-06-14T09:05:28;21.40;99.90
47540;DHT22;33280;52.152;21.052;2023-06-14T09:07:55;21.40;99.90
47540;DHT22;33280;52.152;21.052;2023-06-14T09:10:31;21.60;99.90
47540;DHT22;33280;52.152;21.052;2023-06-14T09:13:04;21.70;99.90
47540;DHT22;33280;52.152;21.052;2023-06-14T09:15:32;21.80;99.90
47540;DHT22;33280;52.152;21.052;2023-06-14T09:18:01;21.80;99.90
47540;DHT22;33280;52.152;21.052;2023-06-14T09:20:30;21.90;99.90
47540;DHT22;33280;52.152;21.052;2023-06-14T09:22:58;21.80;99.90
47540;DHT22;33280;52.152;21.052;2023-06-14T09:25:25;21.70;99.90
47540;DHT22;33280;52.152;21.052;2023-06-14T09:28:08;21.50;99.90
47540;DHT22;33280;52.152;21.052;2023-06-14T09:30:39;21.50;99.90
47540;DHT22;33280;52.152;21.052;2023-06-14T09:33:06;21.40;99.90
47540;DHT22;33280;52.152;21.052;2023-06-14T09:35:34;21.60;99.90
47540;DHT22;33280;52.152;21.052;2023-06-14T09:38:01;21.50;99.90
47540;DHT22;33280;52.152;21.052;2023-06-14T09:40:28;21.50;99.90
47540;DHT22;33280;52.152;21.052;2023-06-14T09:43:00;21.50;99.90
47540;DHT22;33280;52.152;21.052;2023-06-14T09:45:26;21.30;99.90
47540;DHT22;33280;52.152;21.052;2023-06-14T09:47:58;21.30;99.90
47540;DHT22;33280;52.152;21.052;2023-06-14T09:50:28;21.50;99.90
47540;DHT22;33280;52.152;21.052;2023-06-14T09:52:58;21.50;99.90
47540;DHT22;33280;52.152;21.052;2023-06-14T09:55:30;21.60;99.90
47540;DHT22;33280;52.152;21.052;2023-06-14T09:58:00;21.70;99.90
47540;DHT22;33280;52.152;21.052;2023-06-14T10:00:31;21.70;99.90
47540;DHT22;33280;52.152;21.052;2023-06-14T10:03:14;21.60;99.90
47540;DHT22;33280;52.152;21.052;2023-06-14T10:05:48;21.40;99.90
47540;DHT22;33280;52.152;21.052;2023-06-14T10:08:19;21.20;99.90
47540;DHT22;33280;52.152;21.052;2023-06-14T10:10:50;21.40;99.90
47540;DHT22;33280;52.152;21.052;2023-06-14T10:13:18;21.50;99.90
47540;DHT22;33280;52.152;21.052;2023-06-14T10:18:42;21.60;99.90
47540;DHT22;33280;52.152;21.052;2023-06-14T10:21:49;21.90;99.90
47540;DHT22;33280;52.152;21.052;2023-06-14T10:24:20;22.00;99.90
47540;DHT22;33280;52.152;21.052;2023-06-14T10:26:54;21.90;99.90
47540;DHT22;33280;52.152;21.052;2023-06-14T10:29:25;21.70;99.90
47540;DHT22;33280;52.152;21.052;2023-06-14T10:31:57;21.70;99.90
47540;DHT22;33280;52.152;21.052;2023-06-14T10:34:29;21.50;99.90
47540;DHT22;33280;52.152;21.052;2023-06-14T10:37:04;21.60;99.90
47540;DHT22;33280;52.152;21.052;2023-06-14T10:39:43;21.70;99.90
47540;DHT22;33280;52.152;21.052;2023-06-14T10:42:13;21.90;99.90
47540;DHT22;33280;52.152;21.052;2023-06-14T10:47:25;21.70;99.90
47540;DHT22;33280;52.152;21.052;2023-06-14T10:50:10;21.80;99.90
47540;DHT22;33280;52.152;21.052;2023-06-14T10:52:39;21.80;99.90
47540;DHT22;33280;52.152;21.052;2023-06-14T10:55:17;22.00;99.90
47540;DHT22;33280;52.152;21.052;2023-06-14T11:00:21;22.40;99.90
47540;DHT22;33280;52.152;21.052;2023-06-14T11:05:51;23.10;99.90
47540;DHT22;33280;52.152;21.052;2023-06-14T11:11:17;22.90;99.90
47540;DHT22;33280;52.152;21.052;2023-06-14T11:13:45;22.60;99.90
47540;DHT22;33280;52.152;21.052;2023-06-14T11:16:16;22.20;99.90
47540;DHT22;33280;52.152;21.052;2023-06-14T11:18:44;22.10;99.90
47540;DHT22;33280;52.152;21.052;2023-06-14T11:21:15;21.90;99.90
47540;DHT22;33280;52.152;21.052;2023-06-14T11:23:49;22.00;99.90
47540;DHT22;33280;52.152;21.052;2023-06-14T11:26:27;21.90;99.90
47540;DHT22;33280;52.152;21.052;2023-06-14T11:28:56;21.80;99.90
47540;DHT22;33280;52.152;21.052;2023-06-14T11:31:24;21.80;99.90
47540;DHT22;33280;52.152;21.052;2023-06-14T11:33:59;21.90;99.90
47540;DHT22;33280;52.152;21.052;2023-06-14T11:36:27;21.70;99.90
47540;DHT22;33280;52.152;21.052;2023-06-14T11:39:01;21.90;99.90
47540;DHT22;33280;52.152;21.052;2023-06-14T11:41:42;22.10;99.90
47540;DHT22;33280;52.152;21.052;2023-06-14T11:44:10;22.30;99.90
47540;DHT22;33280;52.152;21.052;2023-06-14T11:46:37;22.40;99.90
47540;DHT22;33280;52.152;21.052;2023-06-14T11:49:04;22.20;99.90
47540;DHT22;33280;52.152;21.052;2023-06-14T11:51:35;22.40;99.90
47540;DHT22;33280;52.152;21.052;2023-06-14T11:54:03;22.70;99.90
47540;DHT22;33280;52.152;21.052;2023-06-14T11:56:31;23.30;99.90
47540;DHT22;33280;52.152;21.052;2023-06-14T11:58:59;23.80;99.90
47540;DHT22;33280;52.152;21.052;2023-06-14T12:01:26;24.00;99.90
47540;DHT22;33280;52.152;21.052;2023-06-14T12:03:54;24.30;99.90
47540;DHT22;33280;52.152;21.052;2023-06-14T12:06:29;24.40;99.90
47540;DHT22;33280;52.152;21.052;2023-06-14T12:09:02;24.60;99.90
47540;DHT22;33280;52.152;21.052;2023-06-14T12:11:35;24.60;99.90
47540;DHT22;33280;52.152;21.052;2023-06-14T12:14:04;24.70;99.90
47540;DHT22;33280;52.152;21.052;2023-06-14T12:16:33;24.80;99.90
47540;DHT22;33280;52.152;21.052;2023-06-14T12:19:07;24.90;99.90
47540;DHT22;33280;52.152;21.052;2023-06-14T12:21:34;25.20;99.90
47540;DHT22;33280;52.152;21.052;2023-06-14T12:24:06;25.00;99.90
47540;DHT22;33280;52.152;21.052;2023-06-14T12:26:33;24.50;99.90
47540;DHT22;33280;52.152;21.052;2023-06-14T12:29:05;24.00;99.90
47540;DHT22;33280;52.152;21.052;2023-06-14T12:31:33;23.60;99.90
47540;DHT22;33280;52.152;21.052;2023-06-14T12:34:00;23.60;99.90
47540;DHT22;33280;52.152;21.052;2023-06-14T12:36:27;23.90;99.90
47540;DHT22;33280;52.152;21.052;2023-06-14T12:38:54;24.30;99.90
47540;DHT22;33280;52.152;21.052;2023-06-14T12:41:21;24.60;99.90
47540;DHT22;33280;52.152;21.052;2023-06-14T12:43:49;25.10;99.90
47540;DHT22;33280;52.152;21.052;2023-06-14T12:46:17;25.70;99.50
47540;DHT22;33280;52.152;21.052;2023-06-14T12:48:44;25.80;98.90
47540;DHT22;33280;52.152;21.052;2023-06-14T12:51:11;25.70;98.30
47540;DHT22;33280;52.152;21.052;2023-06-14T12:53:38;25.20;98.10
47540;DHT22;33280;52.152;21.052;2023-06-14T12:56:06;24.90;99.20
47540;DHT22;33280;52.152;21.052;2023-06-14T12:58:33;25.30;99.90
47540;DHT22;33280;52.152;21.052;2023-06-14T13:01:00;25.50;99.90
47540;DHT22;33280;52.152;21.052;2023-06-14T13:03:30;25.60;98.80
47540;DHT22;33280;52.152;21.052;2023-06-14T13:05:57;25.90;96.40
47540;DHT22;33280;52.152;21.052;2023-06-14T13:08:24;26.00;95.10
47540;DHT22;33280;52.152;21.052;2023-06-14T13:10:51;25.60;96.00
47540;DHT22;33280;52.152;21.052;2023-06-14T13:13:18;25.50;96.00
47540;DHT22;33280;52.152;21.052;2023-06-14T13:15:45;25.40;96.60
47540;DHT22;33280;52.152;21.052;2023-06-14T13:18:13;25.40;96.30
47540;DHT22;33280;52.152;21.052;2023-06-14T13:20:40;25.10;95.80
47540;DHT22;33280;52.152;21.052;2023-06-14T13:23:08;25.40;95.50
47540;DHT22;33280;52.152;21.052;2023-06-14T13:25:37;25.70;94.70
47540;DHT22;33280;52.152;21.052;2023-06-14T13:28:04;25.70;93.70
47540;DHT22;33280;52.152;21.052;2023-06-14T13:30:32;26.30;93.30
47540;DHT22;33280;52.152;21.052;2023-06-14T13:33:00;26.90;92.60
47540;DHT22;33280;52.152;21.052;2023-06-14T13:35:27;27.10;92.70
47540;DHT22;33280;52.152;21.052;2023-06-14T13:37:54;27.30;91.50
47540;DHT22;33280;52.152;21.052;2023-06-14T13:40:21;27.20;90.90
47540;DHT22;33280;52.152;21.052;2023-06-14T13:42:48;27.30;91.30
47540;DHT22;33280;52.152;21.052;2023-06-14T13:45:15;26.80;90.80
47540;DHT22;33280;52.152;21.052;2023-06-14T13:47:42;26.10;91.10
47540;DHT22;33280;52.152;21.052;2023-06-14T13:50:10;25.70;92.30
47540;DHT22;33280;52.152;21.052;2023-06-14T13:52:37;25.50;92.70
47540;DHT22;33280;52.152;21.052;2023-06-14T13:55:04;25.40;93.10
47540;DHT22;33280;52.152;21.052;2023-06-14T13:57:32;25.40;92.90
47540;DHT22;33280;52.152;21.052;2023-06-14T13:59:59;25.00;93.50
47540;DHT22;33280;52.152;21.052;2023-06-14T14:02:28;25.20;94.00
47540;DHT22;33280;52.152;21.052;2023-06-14T14:04:56;25.30;94.80
47540;DHT22;33280;52.152;21.052;2023-06-14T14:07:24;24.80;93.10
47540;DHT22;33280;52.152;21.052;2023-06-14T14:09:51;24.90;93.80
47540;DHT22;33280;52.152;21.052;2023-06-14T14:12:18;24.60;94.00
47540;DHT22;33280;52.152;21.052;2023-06-14T14:14:45;24.80;94.00
47540;DHT22;33280;52.152;21.052;2023-06-14T14:17:13;24.40;94.80
47540;DHT22;33280;52.152;21.052;2023-06-14T14:19:40;24.30;95.10
47540;DHT22;33280;52.152;21.052;2023-06-14T14:22:07;24.50;96.00
47540;DHT22;33280;52.152;21.052;2023-06-14T14:24:34;24.20;96.00
47540;DHT22;33280;52.152;21.052;2023-06-14T14:27:02;24.10;95.80
47540;DHT22;33280;52.152;21.052;2023-06-14T14:29:32;24.00;95.50
47540;DHT22;33280;52.152;21.052;2023-06-14T14:31:59;23.80;95.00
47540;DHT22;33280;52.152;21.052;2023-06-14T14:34:26;23.60;95.90
47540;DHT22;33280;52.152;21.052;2023-06-14T14:36:54;23.80;95.50
47540;DHT22;33280;52.152;21.052;2023-06-14T14:39:21;23.80;95.80
47540;DHT22;33280;52.152;21.052;2023-06-14T14:41:48;23.70;95.80
47540;DHT22;33280;52.152;21.052;2023-06-14T14:44:16;23.80;95.60
47540;DHT22;33280;52.152;21.052;2023-06-14T14:46:43;24.10;96.30
47540;DHT22;33280;52.152;21.052;2023-06-14T14:49:11;24.20;95.80
47540;DHT22;33280;52.152;21.052;2023-06-14T14:51:38;24.10;95.90
47540;DHT22;33280;52.152;21.052;2023-06-14T14:54:06;23.80;96.20
47540;DHT22;33280;52.152;21.052;2023-06-14T14:56:33;23.60;97.00
47540;DHT22;33280;52.152;21.052;2023-06-14T14:59:02;23.60;96.40
47540;DHT22;33280;52.152;21.052;2023-06-14T15:01:29;24.00;95.10
47540;DHT22;33280;52.152;21.052;2023-06-14T15:03:57;24.30;95.20
47540;DHT22;33280;52.152;21.052;2023-06-14T15:06:26;24.30;94.20
47540;DHT22;33280;52.152;21.052;2023-06-14T15:08:53;24.00;94.80
47540;DHT22;33280;52.152;21.052;2023-06-14T15:11:20;24.40;94.50
47540;DHT22;33280;52.152;21.052;2023-06-14T15:13:50;25.20;93.90
47540;DHT22;33280;52.152;21.052;2023-06-14T15:16:17;25.70;92.20
47540;DHT22;33280;52.152;21.052;2023-06-14T15:18:44;26.00;91.30
47540;DHT22;33280;52.152;21.052;2023-06-14T15:21:12;26.70;90.60
47540;DHT22;33280;52.152;21.052;2023-06-14T15:23:39;27.70;88.60
47540;DHT22;33280;52.152;21.052;2023-06-14T15:26:06;27.80;87.00
47540;DHT22;33280;52.152;21.052;2023-06-14T15:28:33;28.40;86.30
47540;DHT22;33280;52.152;21.052;2023-06-14T15:31:00;28.60;83.50
47540;DHT22;33280;52.152;21.052;2023-06-14T15:33:28;28.10;82.50
47540;DHT22;33280;52.152;21.052;2023-06-14T15:35:55;27.50;84.20
47540;DHT22;33280;52.152;21.052;2023-06-14T15:38:22;26.80;86.30
47540;DHT22;33280;52.152;21.052;2023-06-14T15:40:49;26.30;88.20
47540;DHT22;33280;52.152;21.052;2023-06-14T15:43:18;26.20;87.90
47540;DHT22;33280;52.152;21.052;2023-06-14T15:45:45;26.20;88.50
47540;DHT22;33280;52.152;21.052;2023-06-14T15:48:12;26.10;87.90
47540;DHT22;33280;52.152;21.052;2023-06-14T15:50:39;25.70;89.00
47540;DHT22;33280;52.152;21.052;2023-06-14T15:53:06;25.30;90.20
47540;DHT22;33280;52.152;21.052;2023-06-14T15:55:33;24.80;91.20
47540;DHT22;33280;52.152;21.052;2023-06-14T15:58:00;24.10;92.50
47540;DHT22;33280;52.152;21.052;2023-06-14T16:00:27;23.60;93.20
47540;DHT22;33280;52.152;21.052;2023-06-14T16:02:54;23.40;93.80
47540;DHT22;33280;52.152;21.052;2023-06-14T16:05:21;23.20;94.20
47540;DHT22;33280;52.152;21.052;2023-06-14T16:07:48;22.90;95.20
47540;DHT22;33280;52.152;21.052;2023-06-14T16:10:15;22.60;95.60
47540;DHT22;33280;52.152;21.052;2023-06-14T16:12:43;22.30;96.80
47540;DHT22;33280;52.152;21.052;2023-06-14T16:15:13;22.10;97.30
47540;DHT22;33280;52.152;21.052;2023-06-14T16:17:44;22.00;97.90
47540;DHT22;33280;52.152;21.052;2023-06-14T16:20:11;21.80;98.60
47540;DHT22;33280;52.152;21.052;2023-06-14T16:22:38;22.00;99.30
47540;DHT22;33280;52.152;21.052;2023-06-14T16:25:05;22.00;99.30
47540;DHT22;33280;52.152;21.052;2023-06-14T16:27:33;21.90;99.90
47540;DHT22;33280;52.152;21.052;2023-06-14T16:30:00;21.70;99.90
47540;DHT22;33280;52.152;21.052;2023-06-14T16:32:27;21.50;99.90
47540;DHT22;33280;52.152;21.052;2023-06-14T16:34:54;21.40;99.90
47540;DHT22;33280;52.152;21.052;2023-06-14T16:37:21;21.10;99.90
47540;DHT22;33280;52.152;21.052;2023-06-14T16:39:48;21.00;99.90
47540;DHT22;33280;52.152;21.052;2023-06-14T16:42:15;20.90;99.90
47540;DHT22;33280;52.152;21.052;2023-06-14T16:44:42;20.80;99.90
47540;DHT22;33280;52.152;21.052;2023-06-14T16:47:09;20.70;99.90
47540;DHT22;33280;52.152;21.052;2023-06-14T16:49:37;20.60;99.90
47540;DHT22;33280;52.152;21.052;2023-06-14T16:52:04;20.40;99.90
47540;DHT22;33280;52.152;21.052;2023-06-14T16:54:31;20.30;99.90
47540;DHT22;33280;52.152;21.052;2023-06-14T16:56:58;20.10;99.90
47540;DHT22;33280;52.152;21.052;2023-06-14T16:59:27;20.10;99.90
47540;DHT22;33280;52.152;21.052;2023-06-14T17:02:04;19.90;99.90
47540;DHT22;33280;52.152;21.052;2023-06-14T17:04:33;19.70;99.90
47540;DHT22;33280;52.152;21.052;2023-06-14T17:07:00;19.60;99.90
47540;DHT22;33280;52.152;21.052;2023-06-14T17:09:29;19.50;99.90
47540;DHT22;33280;52.152;21.052;2023-06-14T17:11:56;19.50;99.90
47540;DHT22;33280;52.152;21.052;2023-06-14T17:14:23;19.50;99.90
47540;DHT22;33280;52.152;21.052;2023-06-14T17:16:50;19.50;99.90
47540;DHT22;33280;52.152;21.052;2023-06-14T17:19:17;19.50;99.90
47540;DHT22;33280;52.152;21.052;2023-06-14T17:21:48;19.40;99.90
47540;DHT22;33280;52.152;21.052;2023-06-14T17:24:18;19.40;99.90
47540;DHT22;33280;52.152;21.052;2023-06-14T17:26:51;19.40;99.90
47540;DHT22;33280;52.152;21.052;2023-06-14T17:29:18;19.40;99.90
47540;DHT22;33280;52.152;21.052;2023-06-14T17:31:45;19.30;99.90
47540;DHT22;33280;52.152;21.052;2023-06-14T17:34:12;19.20;99.90
47540;DHT22;33280;52.152;21.052;2023-06-14T17:36:39;18.90;99.90
47540;DHT22;33280;52.152;21.052;2023-06-14T17:39:06;18.50;99.90
47540;DHT22;33280;52.152;21.052;2023-06-14T17:41:35;18.10;99.90
47540;DHT22;33280;52.152;21.052;2023-06-14T17:44:02;17.70;99.90
47540;DHT22;33280;52.152;21.052;2023-06-14T17:46:29;17.60;99.90
47540;DHT22;33280;52.152;21.052;2023-06-14T17:48:56;17.30;99.90
47540;DHT22;33280;52.152;21.052;2023-06-14T17:51:23;17.20;99.90
47540;DHT22;33280;52.152;21.052;2023-06-14T17:53:50;17.10;99.90
47540;DHT22;33280;52.152;21.052;2023-06-14T17:56:17;17.00;99.90
47540;DHT22;33280;52.152;21.052;2023-06-14T17:58:46;16.90;99.90
47540;DHT22;33280;52.152;21.052;2023-06-14T18:01:13;16.80;99.90
47540;DHT22;33280;52.152;21.052;2023-06-14T18:03:45;16.80;99.90
47540;DHT22;33280;52.152;21.052;2023-06-14T18:06:13;16.70;99.90
47540;DHT22;33280;52.152;21.052;2023-06-14T18:08:40;16.70;99.90
47540;DHT22;33280;52.152;21.052;2023-06-14T18:11:07;16.60;99.90
47540;DHT22;33280;52.152;21.052;2023-06-14T18:13:33;16.60;99.90
47540;DHT22;33280;52.152;21.052;2023-06-14T18:16:00;16.70;99.90
47540;DHT22;33280;52.152;21.052;2023-06-14T18:18:27;16.60;99.90
47540;DHT22;33280;52.152;21.052;2023-06-14T18:20:54;16.70;99.90
47540;DHT22;33280;52.152;21.052;2023-06-14T18:23:21;16.60;99.90
47540;DHT22;33280;52.152;21.052;2023-06-14T18:25:48;16.60;99.90
47540;DHT22;33280;52.152;21.052;2023-06-14T18:28:15;16.70;99.90
47540;DHT22;33280;52.152;21.052;2023-06-14T18:30:42;16.80;99.90
47540;DHT22;33280;52.152;21.052;2023-06-14T18:33:10;16.70;99.90
47540;DHT22;33280;52.152;21.052;2023-06-14T18:35:38;16.60;99.90
47540;DHT22;33280;52.152;21.052;2023-06-14T18:38:05;16.70;99.90
47540;DHT22;33280;52.152;21.052;2023-06-14T18:40:33;16.70;99.90
47540;DHT22;33280;52.152;21.052;2023-06-14T18:43:00;16.80;99.90
47540;DHT22;33280;52.152;21.052;2023-06-14T18:45:27;16.60;99.90
47540;DHT22;33280;52.152;21.052;2023-06-14T18:47:54;16.60;99.90
47540;DHT22;33280;52.152;21.052;2023-06-14T18:50:21;16.60;99.90